sensor_id;sensor_type;location;lat;lon;timestamp;P1;durP1;ratioP1;P2;durP2;ratioP2
1088;SDS011;533;53.556;9.990;2022-08-01T00:01:51;16.57;;;14.83;;
1088;SDS011;533;53.556;9.990;2022-08-01T00:04:24;13.97;;;12.60;;
1088;SDS011;533;53.556;9.990;2022-08-01T00:07:00;15.13;;;13.67;;
1088;SDS011;533;53.556;9.990;2022-08-01T00:09:36;14.57;;;13.03;;
1088;SDS011;533;53.556;9.990;2022-08-01T00:12:09;14.77;;;13.17;;
1088;SDS011;533;53.556;9.990;2022-08-01T00:14:43;14.80;;;13.20;;
1088;SDS011;533;53.556;9.990;2022-08-01T00:17:18;14.57;;;12.97;;
1088;SDS011;533;53.556;9.990;2022-08-01T00:19:55;13.93;;;12.13;;
1088;SDS011;533;53.556;9.990;2022-08-01T00:22:34;13.40;;;12.10;;
1088;SDS011;533;53.556;9.990;2022-08-01T00:25:08;12.53;;;11.33;;
1088;SDS011;533;53.556;9.990;2022-08-01T00:27:49;13.90;;;11.63;;
1088;SDS011;533;53.556;9.990;2022-08-01T00:30:27;14.10;;;12.43;;
1088;SDS011;533;53.556;9.990;2022-08-01T00:33:04;13.93;;;12.47;;
1088;SDS011;533;53.556;9.990;2022-08-01T00:35:37;14.67;;;13.10;;
1088;SDS011;533;53.556;9.990;2022-08-01T00:38:16;13.90;;;12.50;;
1088;SDS011;533;53.556;9.990;2022-08-01T00:40:53;14.73;;;12.73;;
1088;SDS011;533;53.556;9.990;2022-08-01T00:43:29;15.90;;;12.40;;
1088;SDS011;533;53.556;9.990;2022-08-01T00:46:03;14.20;;;11.63;;
1088;SDS011;533;53.556;9.990;2022-08-01T00:48:36;15.23;;;12.40;;
1088;SDS011;533;53.556;9.990;2022-08-01T00:51:12;15.43;;;12.40;;
1088;SDS011;533;53.556;9.990;2022-08-01T00:53:46;12.07;;;10.80;;
1088;SDS011;533;53.556;9.990;2022-08-01T00:56:23;10.80;;;9.70;;
1088;SDS011;533;53.556;9.990;2022-08-01T00:58:57;8.47;;;7.17;;
1088;SDS011;533;53.556;9.990;2022-08-01T01:01:33;8.43;;;7.23;;
1088;SDS011;533;53.556;9.990;2022-08-01T01:04:11;9.83;;;7.47;;
1088;SDS011;533;53.556;9.990;2022-08-01T01:07:06;10.63;;;9.20;;
1088;SDS011;533;53.556;9.990;2022-08-01T01:13:31;18.30;;;10.03;;
1088;SDS011;533;53.556;9.990;2022-08-01T01:16:28;11.20;;;9.77;;
1088;SDS011;533;53.556;9.990;2022-08-01T01:19:03;12.30;;;9.70;;
1088;SDS011;533;53.556;9.990;2022-08-01T01:24:27;11.50;;;10.30;;
1088;SDS011;533;53.556;9.990;2022-08-01T01:27:24;15.37;;;10.23;;
1088;SDS011;533;53.556;9.990;2022-08-01T01:30:01;11.50;;;10.30;;
1088;SDS011;533;53.556;9.990;2022-08-01T01:32:38;11.07;;;9.50;;
1088;SDS011;533;53.556;9.990;2022-08-01T01:35:21;10.70;;;9.20;;
1088;SDS011;533;53.556;9.990;2022-08-01T01:38:07;14.40;;;12.03;;
1088;SDS011;533;53.556;9.990;2022-08-01T01:40:43;12.93;;;11.30;;
1088;SDS011;533;53.556;9.990;2022-08-01T01:43:25;15.03;;;11.40;;
1088;SDS011;533;53.556;9.990;2022-08-01T01:46:09;14.67;;;12.47;;
1088;SDS011;533;53.556;9.990;2022-08-01T01:48:47;13.13;;;11.73;;
1088;SDS011;533;53.556;9.990;2022-08-01T01:51:36;13.20;;;11.83;;
1088;SDS011;533;53.556;9.990;2022-08-01T01:54:15;16.00;;;12.23;;
1088;SDS011;533;53.556;9.990;2022-08-01T01:56:52;16.73;;;12.10;;
1088;SDS011;533;53.556;9.990;2022-08-01T01:59:27;13.93;;;12.07;;
1088;SDS011;533;53.556;9.990;2022-08-01T02:02:05;16.47;;;12.10;;
1088;SDS011;533;53.556;9.990;2022-08-01T02:04:48;14.83;;;12.40;;
1088;SDS011;533;53.556;9.990;2022-08-01T02:07:25;15.70;;;12.20;;
1088;SDS011;533;53.556;9.990;2022-08-01T02:10:05;13.23;;;11.83;;
1088;SDS011;533;53.556;9.990;2022-08-01T02:12:41;13.13;;;11.27;;
1088;SDS011;533;53.556;9.990;2022-08-01T02:15:15;11.90;;;10.20;;
1088;SDS011;533;53.556;9.990;2022-08-01T02:17:49;11.70;;;10.60;;
1088;SDS011;533;53.556;9.990;2022-08-01T02:20:24;11.57;;;10.47;;
1088;SDS011;533;53.556;9.990;2022-08-01T02:23:06;13.30;;;11.60;;
1088;SDS011;533;53.556;9.990;2022-08-01T02:25:46;15.03;;;11.40;;
1088;SDS011;533;53.556;9.990;2022-08-01T02:28:50;11.23;;;10.03;;
1088;SDS011;533;53.556;9.990;2022-08-01T02:31:27;11.50;;;10.30;;
1088;SDS011;533;53.556;9.990;2022-08-01T02:34:12;12.60;;;10.67;;
1088;SDS011;533;53.556;9.990;2022-08-01T02:36:50;12.00;;;10.33;;
1088;SDS011;533;53.556;9.990;2022-08-01T02:39:34;12.13;;;9.83;;
1088;SDS011;533;53.556;9.990;2022-08-01T02:42:08;12.30;;;9.93;;
1088;SDS011;533;53.556;9.990;2022-08-01T02:44:43;12.97;;;9.87;;
1088;SDS011;533;53.556;9.990;2022-08-01T02:47:17;12.63;;;10.23;;
1088;SDS011;533;53.556;9.990;2022-08-01T02:49:52;11.10;;;9.90;;
1088;SDS011;533;53.556;9.990;2022-08-01T02:52:24;10.77;;;9.70;;
1088;SDS011;533;53.556;9.990;2022-08-01T02:54:57;16.00;;;11.57;;
1088;SDS011;533;53.556;9.990;2022-08-01T02:57:30;12.50;;;9.43;;
1088;SDS011;533;53.556;9.990;2022-08-01T03:00:22;12.13;;;10.83;;
1088;SDS011;533;53.556;9.990;2022-08-01T03:02:55;14.30;;;10.87;;
1088;SDS011;533;53.556;9.990;2022-08-01T03:05:28;11.73;;;10.43;;
1088;SDS011;533;53.556;9.990;2022-08-01T03:08:02;13.23;;;11.50;;
1088;SDS011;533;53.556;9.990;2022-08-01T03:10:42;12.23;;;10.93;;
1088;SDS011;533;53.556;9.990;2022-08-01T03:13:16;10.27;;;9.27;;
1088;SDS011;533;53.556;9.990;2022-08-01T03:15:49;11.50;;;10.30;;
1088;SDS011;533;53.556;9.990;2022-08-01T03:18:23;14.57;;;9.70;;
1088;SDS011;533;53.556;9.990;2022-08-01T03:20:56;10.97;;;9.97;;
1088;SDS011;533;53.556;9.990;2022-08-01T03:23:33;10.67;;;8.90;;
1088;SDS011;533;53.556;9.990;2022-08-01T03:26:09;10.23;;;9.10;;
1088;SDS011;533;53.556;9.990;2022-08-01T03:28:41;11.00;;;9.10;;
1088;SDS011;533;53.556;9.990;2022-08-01T03:31:16;12.03;;;8.40;;
1088;SDS011;533;53.556;9.990;2022-08-01T03:33:49;9.90;;;7.97;;
1088;SDS011;533;53.556;9.990;2022-08-01T03:36:22;13.77;;;9.43;;
1088;SDS011;533;53.556;9.990;2022-08-01T03:38:59;10.27;;;9.27;;
1088;SDS011;533;53.556;9.990;2022-08-01T03:41:34;14.67;;;9.90;;
1088;SDS011;533;53.556;9.990;2022-08-01T03:44:12;12.20;;;10.53;;
1088;SDS011;533;53.556;9.990;2022-08-01T03:46:47;12.00;;;10.87;;
1088;SDS011;533;53.556;9.990;2022-08-01T03:49:22;9.37;;;8.47;;
1088;SDS011;533;53.556;9.990;2022-08-01T03:51:56;11.50;;;9.77;;
1088;SDS011;533;53.556;9.990;2022-08-01T03:54:29;11.03;;;8.80;;
1088;SDS011;533;53.556;9.990;2022-08-01T03:57:03;9.90;;;8.90;;
1088;SDS011;533;53.556;9.990;2022-08-01T03:59:35;7.73;;;6.73;;
1088;SDS011;533;53.556;9.990;2022-08-01T04:02:09;9.70;;;6.60;;
1088;SDS011;533;53.556;9.990;2022-08-01T04:04:42;9.10;;;6.23;;
1088;SDS011;533;53.556;9.990;2022-08-01T04:07:21;11.97;;;6.73;;
1088;SDS011;533;53.556;9.990;2022-08-01T04:09:58;8.23;;;7.43;;
1088;SDS011;533;53.556;9.990;2022-08-01T04:12:30;7.90;;;7.10;;
1088;SDS011;533;53.556;9.990;2022-08-01T04:15:03;8.07;;;6.80;;
1088;SDS011;533;53.556;9.990;2022-08-01T04:17:36;10.80;;;6.70;;
1088;SDS011;533;53.556;9.990;2022-08-01T04:20:08;8.33;;;6.77;;
1088;SDS011;533;53.556;9.990;2022-08-01T04:22:42;11.90;;;6.73;;
1088;SDS011;533;53.556;9.990;2022-08-01T04:25:19;8.10;;;7.30;;
1088;SDS011;533;53.556;9.990;2022-08-01T04:27:55;6.57;;;5.97;;
1088;SDS011;533;53.556;9.990;2022-08-01T04:30:29;6.50;;;5.80;;
1088;SDS011;533;53.556;9.990;2022-08-01T04:33:04;8.23;;;5.87;;
1088;SDS011;533;53.556;9.990;2022-08-01T04:35:39;10.60;;;7.30;;
1088;SDS011;533;53.556;9.990;2022-08-01T04:38:33;8.43;;;6.10;;
1088;SDS011;533;53.556;9.990;2022-08-01T04:41:09;5.20;;;4.70;;
1088;SDS011;533;53.556;9.990;2022-08-01T04:43:43;6.33;;;4.90;;
1088;SDS011;533;53.556;9.990;2022-08-01T04:46:15;5.30;;;4.80;;
1088;SDS011;533;53.556;9.990;2022-08-01T04:48:49;6.70;;;4.70;;
1088;SDS011;533;53.556;9.990;2022-08-01T04:51:22;5.40;;;4.70;;
1088;SDS011;533;53.556;9.990;2022-08-01T04:53:55;5.57;;;4.20;;
1088;SDS011;533;53.556;9.990;2022-08-01T04:56:29;5.73;;;4.33;;
1088;SDS011;533;53.556;9.990;2022-08-01T04:59:02;7.17;;;5.40;;
1088;SDS011;533;53.556;9.990;2022-08-01T05:01:53;5.80;;;4.43;;
1088;SDS011;533;53.556;9.990;2022-08-01T05:04:25;5.87;;;4.47;;
1088;SDS011;533;53.556;9.990;2022-08-01T05:06:58;7.63;;;4.13;;
1088;SDS011;533;53.556;9.990;2022-08-01T05:09:30;8.07;;;4.70;;
1088;SDS011;533;53.556;9.990;2022-08-01T05:12:03;4.20;;;3.80;;
1088;SDS011;533;53.556;9.990;2022-08-01T05:14:37;5.63;;;4.40;;
1088;SDS011;533;53.556;9.990;2022-08-01T05:17:10;5.83;;;3.23;;
1088;SDS011;533;53.556;9.990;2022-08-01T05:19:42;6.30;;;3.60;;
1088;SDS011;533;53.556;9.990;2022-08-01T05:22:15;4.10;;;3.70;;
1088;SDS011;533;53.556;9.990;2022-08-01T05:24:47;5.23;;;3.60;;
1088;SDS011;533;53.556;9.990;2022-08-01T05:27:20;3.80;;;3.07;;
1088;SDS011;533;53.556;9.990;2022-08-01T05:29:52;4.90;;;3.47;;
1088;SDS011;533;53.556;9.990;2022-08-01T05:32:25;3.77;;;3.10;;
1088;SDS011;533;53.556;9.990;2022-08-01T05:35:01;4.07;;;3.67;;
1088;SDS011;533;53.556;9.990;2022-08-01T05:37:34;4.80;;;4.30;;
1088;SDS011;533;53.556;9.990;2022-08-01T05:40:06;5.70;;;4.57;;
1088;SDS011;533;53.556;9.990;2022-08-01T05:42:39;5.97;;;4.47;;
1088;SDS011;533;53.556;9.990;2022-08-01T05:45:11;5.90;;;5.23;;
1088;SDS011;533;53.556;9.990;2022-08-01T05:47:43;10.03;;;7.13;;
1088;SDS011;533;53.556;9.990;2022-08-01T05:50:16;8.20;;;7.40;;
1088;SDS011;533;53.556;9.990;2022-08-01T05:52:48;8.13;;;7.33;;
1088;SDS011;533;53.556;9.990;2022-08-01T05:55:20;7.60;;;6.80;;
1088;SDS011;533;53.556;9.990;2022-08-01T05:57:53;6.70;;;6.20;;
1088;SDS011;533;53.556;9.990;2022-08-01T06:00:25;6.10;;;5.60;;
1088;SDS011;533;53.556;9.990;2022-08-01T06:02:57;9.77;;;6.77;;
1088;SDS011;533;53.556;9.990;2022-08-01T06:05:29;10.83;;;6.40;;
1088;SDS011;533;53.556;9.990;2022-08-01T06:08:01;10.60;;;9.50;;
1088;SDS011;533;53.556;9.990;2022-08-01T06:10:34;10.03;;;9.03;;
1088;SDS011;533;53.556;9.990;2022-08-01T06:13:06;12.40;;;8.90;;
1088;SDS011;533;53.556;9.990;2022-08-01T06:15:38;12.10;;;10.30;;
1088;SDS011;533;53.556;9.990;2022-08-01T06:18:11;14.63;;;11.00;;
1088;SDS011;533;53.556;9.990;2022-08-01T06:20:44;15.63;;;11.87;;
1088;SDS011;533;53.556;9.990;2022-08-01T06:23:16;11.23;;;10.13;;
1088;SDS011;533;53.556;9.990;2022-08-01T06:26:03;10.63;;;9.53;;
1088;SDS011;533;53.556;9.990;2022-08-01T06:28:35;12.87;;;10.17;;
1088;SDS011;533;53.556;9.990;2022-08-01T06:31:08;10.23;;;9.20;;
1088;SDS011;533;53.556;9.990;2022-08-01T06:33:43;10.10;;;9.17;;
1088;SDS011;533;53.556;9.990;2022-08-01T06:36:15;11.60;;;10.40;;
1088;SDS011;533;53.556;9.990;2022-08-01T06:38:47;15.03;;;9.50;;
1088;SDS011;533;53.556;9.990;2022-08-01T06:41:19;11.37;;;10.27;;
1088;SDS011;533;53.556;9.990;2022-08-01T06:43:52;11.60;;;10.50;;
1088;SDS011;533;53.556;9.990;2022-08-01T06:46:24;15.30;;;10.47;;
1088;SDS011;533;53.556;9.990;2022-08-01T06:49:03;14.20;;;11.23;;
1088;SDS011;533;53.556;9.990;2022-08-01T06:51:35;18.30;;;11.23;;
1088;SDS011;533;53.556;9.990;2022-08-01T06:54:07;10.30;;;9.30;;
1088;SDS011;533;53.556;9.990;2022-08-01T06:56:40;11.67;;;9.83;;
1088;SDS011;533;53.556;9.990;2022-08-01T06:59:12;11.33;;;9.13;;
1088;SDS011;533;53.556;9.990;2022-08-01T07:01:44;14.73;;;8.70;;
1088;SDS011;533;53.556;9.990;2022-08-01T07:04:19;10.90;;;8.83;;
1088;SDS011;533;53.556;9.990;2022-08-01T07:06:51;8.37;;;7.57;;
1088;SDS011;533;53.556;9.990;2022-08-01T07:09:23;15.17;;;8.90;;
1088;SDS011;533;53.556;9.990;2022-08-01T07:11:55;14.53;;;7.60;;
1088;SDS011;533;53.556;9.990;2022-08-01T07:14:28;14.23;;;8.43;;
1088;SDS011;533;53.556;9.990;2022-08-01T07:17:00;9.90;;;7.27;;
1088;SDS011;533;53.556;9.990;2022-08-01T07:19:32;12.50;;;7.90;;
1088;SDS011;533;53.556;9.990;2022-08-01T07:22:09;9.80;;;7.40;;
1088;SDS011;533;53.556;9.990;2022-08-01T07:24:41;12.57;;;7.70;;
1088;SDS011;533;53.556;9.990;2022-08-01T07:27:16;11.93;;;7.30;;
1088;SDS011;533;53.556;9.990;2022-08-01T07:29:56;13.77;;;9.40;;
1088;SDS011;533;53.556;9.990;2022-08-01T07:32:29;16.83;;;9.43;;
1088;SDS011;533;53.556;9.990;2022-08-01T07:35:03;18.57;;;10.53;;
1088;SDS011;533;53.556;9.990;2022-08-01T07:37:35;15.00;;;10.60;;
1088;SDS011;533;53.556;9.990;2022-08-01T07:40:20;18.10;;;11.10;;
1088;SDS011;533;53.556;9.990;2022-08-01T07:42:52;15.50;;;9.20;;
1088;SDS011;533;53.556;9.990;2022-08-01T07:45:24;15.33;;;10.90;;
1088;SDS011;533;53.556;9.990;2022-08-01T07:48:02;12.70;;;8.67;;
1088;SDS011;533;53.556;9.990;2022-08-01T07:50:39;20.33;;;6.90;;
1088;SDS011;533;53.556;9.990;2022-08-01T07:53:12;16.07;;;8.63;;
1088;SDS011;533;53.556;9.990;2022-08-01T07:55:44;13.03;;;6.13;;
1088;SDS011;533;53.556;9.990;2022-08-01T07:58:18;16.63;;;7.53;;
1088;SDS011;533;53.556;9.990;2022-08-01T08:00:50;7.60;;;5.30;;
1088;SDS011;533;53.556;9.990;2022-08-01T08:03:22;10.73;;;5.57;;
1088;SDS011;533;53.556;9.990;2022-08-01T08:05:54;12.53;;;4.70;;
1088;SDS011;533;53.556;9.990;2022-08-01T08:08:30;18.60;;;5.80;;
1088;SDS011;533;53.556;9.990;2022-08-01T08:11:03;15.40;;;5.37;;
1088;SDS011;533;53.556;9.990;2022-08-01T08:13:35;10.00;;;4.40;;
1088;SDS011;533;53.556;9.990;2022-08-01T08:16:08;7.97;;;4.40;;
1088;SDS011;533;53.556;9.990;2022-08-01T08:18:40;11.03;;;4.20;;
1088;SDS011;533;53.556;9.990;2022-08-01T08:21:13;14.13;;;4.20;;
1088;SDS011;533;53.556;9.990;2022-08-01T08:23:45;7.77;;;3.33;;
1088;SDS011;533;53.556;9.990;2022-08-01T08:26:35;9.60;;;3.67;;
1088;SDS011;533;53.556;9.990;2022-08-01T08:29:11;16.37;;;4.67;;
1088;SDS011;533;53.556;9.990;2022-08-01T08:31:43;8.33;;;3.80;;
1088;SDS011;533;53.556;9.990;2022-08-01T08:34:24;10.13;;;3.80;;
1088;SDS011;533;53.556;9.990;2022-08-01T08:36:57;14.60;;;4.30;;
1088;SDS011;533;53.556;9.990;2022-08-01T08:39:31;7.17;;;3.40;;
1088;SDS011;533;53.556;9.990;2022-08-01T08:42:13;12.07;;;4.53;;
1088;SDS011;533;53.556;9.990;2022-08-01T08:44:45;8.90;;;3.90;;
1088;SDS011;533;53.556;9.990;2022-08-01T08:47:17;11.30;;;3.40;;
1088;SDS011;533;53.556;9.990;2022-08-01T08:49:52;7.43;;;3.30;;
1088;SDS011;533;53.556;9.990;2022-08-01T08:52:25;8.00;;;3.50;;
1088;SDS011;533;53.556;9.990;2022-08-01T08:54:58;7.70;;;3.70;;
1088;SDS011;533;53.556;9.990;2022-08-01T08:57:31;8.23;;;3.60;;
1088;SDS011;533;53.556;9.990;2022-08-01T09:00:04;9.80;;;3.70;;
1088;SDS011;533;53.556;9.990;2022-08-01T09:02:46;10.83;;;4.57;;
1088;SDS011;533;53.556;9.990;2022-08-01T09:05:22;15.00;;;4.27;;
1088;SDS011;533;53.556;9.990;2022-08-01T09:08:10;10.30;;;5.80;;
1088;SDS011;533;53.556;9.990;2022-08-01T09:10:42;7.87;;;3.40;;
1088;SDS011;533;53.556;9.990;2022-08-01T09:13:14;7.07;;;3.60;;
1088;SDS011;533;53.556;9.990;2022-08-01T09:15:49;10.23;;;4.03;;
1088;SDS011;533;53.556;9.990;2022-08-01T09:23:44;6.63;;;3.07;;
1088;SDS011;533;53.556;9.990;2022-08-01T09:26:29;8.90;;;3.50;;
1088;SDS011;533;53.556;9.990;2022-08-01T09:29:06;4.10;;;2.93;;
1088;SDS011;533;53.556;9.990;2022-08-01T09:31:42;8.70;;;4.10;;
1088;SDS011;533;53.556;9.990;2022-08-01T09:34:30;10.00;;;4.10;;
1088;SDS011;533;53.556;9.990;2022-08-01T09:37:05;10.07;;;4.00;;
1088;SDS011;533;53.556;9.990;2022-08-01T09:39:39;5.33;;;3.20;;
1088;SDS011;533;53.556;9.990;2022-08-01T09:42:22;20.33;;;4.20;;
1088;SDS011;533;53.556;9.990;2022-08-01T09:45:00;9.80;;;4.90;;
1088;SDS011;533;53.556;9.990;2022-08-01T09:47:39;13.53;;;5.10;;
1088;SDS011;533;53.556;9.990;2022-08-01T09:50:15;8.03;;;4.30;;
1088;SDS011;533;53.556;9.990;2022-08-01T09:52:53;14.00;;;4.53;;
1088;SDS011;533;53.556;9.990;2022-08-01T09:55:25;12.43;;;5.03;;
1088;SDS011;533;53.556;9.990;2022-08-01T09:57:58;14.20;;;6.00;;
1088;SDS011;533;53.556;9.990;2022-08-01T10:00:33;13.90;;;6.07;;
1088;SDS011;533;53.556;9.990;2022-08-01T10:05:58;12.17;;;5.70;;
1088;SDS011;533;53.556;9.990;2022-08-01T10:08:37;10.07;;;6.07;;
1088;SDS011;533;53.556;9.990;2022-08-01T10:11:17;7.37;;;5.00;;
1088;SDS011;533;53.556;9.990;2022-08-01T10:13:51;7.63;;;5.00;;
1088;SDS011;533;53.556;9.990;2022-08-01T10:16:26;16.00;;;6.17;;
1088;SDS011;533;53.556;9.990;2022-08-01T10:19:02;14.63;;;6.70;;
1088;SDS011;533;53.556;9.990;2022-08-01T10:21:45;11.07;;;6.30;;
1088;SDS011;533;53.556;9.990;2022-08-01T10:24:30;11.80;;;6.60;;
1088;SDS011;533;53.556;9.990;2022-08-01T10:27:05;9.23;;;6.23;;
1088;SDS011;533;53.556;9.990;2022-08-01T10:29:47;9.80;;;5.50;;
1088;SDS011;533;53.556;9.990;2022-08-01T10:32:40;9.23;;;6.03;;
1088;SDS011;533;53.556;9.990;2022-08-01T10:35:21;8.03;;;5.00;;
1088;SDS011;533;53.556;9.990;2022-08-01T10:38:14;6.17;;;4.30;;
1088;SDS011;533;53.556;9.990;2022-08-01T10:40:47;12.10;;;5.20;;
1088;SDS011;533;53.556;9.990;2022-08-01T10:43:20;13.37;;;5.07;;
1088;SDS011;533;53.556;9.990;2022-08-01T10:45:53;9.30;;;4.07;;
1088;SDS011;533;53.556;9.990;2022-08-01T10:51:02;5.37;;;3.63;;
1088;SDS011;533;53.556;9.990;2022-08-01T10:53:50;11.63;;;4.17;;
1088;SDS011;533;53.556;9.990;2022-08-01T10:56:25;8.40;;;4.90;;
1088;SDS011;533;53.556;9.990;2022-08-01T10:59:14;6.20;;;3.40;;
1088;SDS011;533;53.556;9.990;2022-08-01T11:02:08;7.30;;;2.77;;
1088;SDS011;533;53.556;9.990;2022-08-01T11:07:35;7.20;;;2.70;;
1088;SDS011;533;53.556;9.990;2022-08-01T11:10:21;13.27;;;3.50;;
1088;SDS011;533;53.556;9.990;2022-08-01T11:12:56;12.07;;;3.77;;
1088;SDS011;533;53.556;9.990;2022-08-01T11:15:30;8.73;;;3.33;;
1088;SDS011;533;53.556;9.990;2022-08-01T11:18:03;8.00;;;2.80;;
1088;SDS011;533;53.556;9.990;2022-08-01T11:21:02;8.03;;;2.93;;
1088;SDS011;533;53.556;9.990;2022-08-01T11:23:55;6.13;;;2.10;;
1088;SDS011;533;53.556;9.990;2022-08-01T11:26:28;8.37;;;2.80;;
1088;SDS011;533;53.556;9.990;2022-08-01T11:29:11;6.67;;;3.00;;
1088;SDS011;533;53.556;9.990;2022-08-01T11:31:51;16.33;;;3.30;;
1088;SDS011;533;53.556;9.990;2022-08-01T11:34:51;11.53;;;3.43;;
1088;SDS011;533;53.556;9.990;2022-08-01T11:37:28;8.97;;;2.30;;
1088;SDS011;533;53.556;9.990;2022-08-01T11:45:55;9.87;;;3.30;;
1088;SDS011;533;53.556;9.990;2022-08-01T11:48:28;10.33;;;2.90;;
1088;SDS011;533;53.556;9.990;2022-08-01T11:51:01;10.40;;;2.40;;
1088;SDS011;533;53.556;9.990;2022-08-01T11:53:34;9.07;;;2.80;;
1088;SDS011;533;53.556;9.990;2022-08-01T11:56:11;7.17;;;2.80;;
1088;SDS011;533;53.556;9.990;2022-08-01T11:58:48;9.53;;;2.73;;
1088;SDS011;533;53.556;9.990;2022-08-01T12:01:21;7.40;;;3.10;;
1088;SDS011;533;53.556;9.990;2022-08-01T12:03:57;6.13;;;2.97;;
1088;SDS011;533;53.556;9.990;2022-08-01T12:06:29;7.20;;;2.80;;
1088;SDS011;533;53.556;9.990;2022-08-01T12:09:15;7.37;;;3.00;;
1088;SDS011;533;53.556;9.990;2022-08-01T12:11:48;7.90;;;2.50;;
1088;SDS011;533;53.556;9.990;2022-08-01T12:14:21;5.73;;;2.47;;
1088;SDS011;533;53.556;9.990;2022-08-01T12:16:54;4.17;;;2.20;;
1088;SDS011;533;53.556;9.990;2022-08-01T12:19:26;5.60;;;2.40;;
1088;SDS011;533;53.556;9.990;2022-08-01T12:24:42;7.00;;;2.43;;
1088;SDS011;533;53.556;9.990;2022-08-01T12:27:26;11.80;;;2.67;;
1088;SDS011;533;53.556;9.990;2022-08-01T12:30:00;7.13;;;1.90;;
1088;SDS011;533;53.556;9.990;2022-08-01T12:32:34;8.43;;;2.20;;
1088;SDS011;533;53.556;9.990;2022-08-01T12:35:12;14.83;;;2.60;;
1088;SDS011;533;53.556;9.990;2022-08-01T12:37:50;7.63;;;2.50;;
1088;SDS011;533;53.556;9.990;2022-08-01T12:40:28;5.90;;;2.40;;
1088;SDS011;533;53.556;9.990;2022-08-01T12:43:03;4.40;;;2.40;;
1088;SDS011;533;53.556;9.990;2022-08-01T12:45:37;7.03;;;2.73;;
1088;SDS011;533;53.556;9.990;2022-08-01T12:48:27;8.23;;;2.90;;
1088;SDS011;533;53.556;9.990;2022-08-01T12:51:02;5.97;;;2.43;;
1088;SDS011;533;53.556;9.990;2022-08-01T12:53:35;6.03;;;1.90;;
1088;SDS011;533;53.556;9.990;2022-08-01T12:56:12;4.80;;;2.03;;
1088;SDS011;533;53.556;9.990;2022-08-01T12:58:44;7.63;;;3.83;;
1088;SDS011;533;53.556;9.990;2022-08-01T13:01:24;10.43;;;3.10;;
1088;SDS011;533;53.556;9.990;2022-08-01T13:03:59;5.57;;;2.47;;
1088;SDS011;533;53.556;9.990;2022-08-01T13:06:32;5.23;;;1.90;;
1088;SDS011;533;53.556;9.990;2022-08-01T13:09:07;6.43;;;2.60;;
1088;SDS011;533;53.556;9.990;2022-08-01T13:11:45;8.77;;;2.30;;
1088;SDS011;533;53.556;9.990;2022-08-01T13:14:42;4.50;;;1.87;;
1088;SDS011;533;53.556;9.990;2022-08-01T13:17:29;7.00;;;2.43;;
1088;SDS011;533;53.556;9.990;2022-08-01T13:20:03;6.67;;;2.20;;
1088;SDS011;533;53.556;9.990;2022-08-01T13:22:37;6.47;;;2.10;;
1088;SDS011;533;53.556;9.990;2022-08-01T13:25:14;8.67;;;2.80;;
1088;SDS011;533;53.556;9.990;2022-08-01T13:30:55;4.53;;;2.60;;
1088;SDS011;533;53.556;9.990;2022-08-01T13:33:43;5.37;;;2.27;;
1088;SDS011;533;53.556;9.990;2022-08-01T13:36:24;5.17;;;2.00;;
1088;SDS011;533;53.556;9.990;2022-08-01T13:39:00;8.87;;;2.47;;
1088;SDS011;533;53.556;9.990;2022-08-01T13:41:53;4.10;;;1.80;;
1088;SDS011;533;53.556;9.990;2022-08-01T13:44:25;3.90;;;1.80;;
1088;SDS011;533;53.556;9.990;2022-08-01T13:46:58;3.60;;;1.90;;
1088;SDS011;533;53.556;9.990;2022-08-01T13:49:33;5.23;;;2.10;;
1088;SDS011;533;53.556;9.990;2022-08-01T13:52:08;5.50;;;2.40;;
1088;SDS011;533;53.556;9.990;2022-08-01T13:54:42;10.50;;;1.70;;
1088;SDS011;533;53.556;9.990;2022-08-01T13:57:14;6.87;;;3.70;;
1088;SDS011;533;53.556;9.990;2022-08-01T13:59:48;5.53;;;2.33;;
1088;SDS011;533;53.556;9.990;2022-08-01T14:02:20;7.90;;;1.90;;
1088;SDS011;533;53.556;9.990;2022-08-01T14:04:53;5.90;;;2.27;;
1088;SDS011;533;53.556;9.990;2022-08-01T14:07:30;5.00;;;2.10;;
1088;SDS011;533;53.556;9.990;2022-08-01T14:10:02;5.53;;;2.00;;
1088;SDS011;533;53.556;9.990;2022-08-01T14:12:51;4.70;;;1.73;;
1088;SDS011;533;53.556;9.990;2022-08-01T14:15:27;4.73;;;1.73;;
1088;SDS011;533;53.556;9.990;2022-08-01T14:18:11;6.03;;;2.17;;
1088;SDS011;533;53.556;9.990;2022-08-01T14:20:43;4.63;;;2.20;;
1088;SDS011;533;53.556;9.990;2022-08-01T14:23:16;6.70;;;2.20;;
1088;SDS011;533;53.556;9.990;2022-08-01T14:25:49;5.80;;;2.30;;
1088;SDS011;533;53.556;9.990;2022-08-01T14:28:38;4.47;;;2.63;;
1088;SDS011;533;53.556;9.990;2022-08-01T14:31:10;6.10;;;2.10;;
1088;SDS011;533;53.556;9.990;2022-08-01T14:33:43;3.47;;;2.10;;
1088;SDS011;533;53.556;9.990;2022-08-01T14:36:15;9.33;;;2.40;;
1088;SDS011;533;53.556;9.990;2022-08-01T14:39:02;5.50;;;2.40;;
1088;SDS011;533;53.556;9.990;2022-08-01T14:41:35;9.73;;;2.40;;
1088;SDS011;533;53.556;9.990;2022-08-01T14:44:07;7.47;;;3.17;;
1088;SDS011;533;53.556;9.990;2022-08-01T14:46:40;6.63;;;2.60;;
1088;SDS011;533;53.556;9.990;2022-08-01T14:49:29;3.00;;;1.87;;
1088;SDS011;533;53.556;9.990;2022-08-01T14:52:01;7.03;;;2.80;;
1088;SDS011;533;53.556;9.990;2022-08-01T14:54:34;7.00;;;2.57;;
1088;SDS011;533;53.556;9.990;2022-08-01T14:57:06;4.17;;;1.87;;
1088;SDS011;533;53.556;9.990;2022-08-01T14:59:40;10.90;;;6.20;;
1088;SDS011;533;53.556;9.990;2022-08-01T15:02:12;5.30;;;2.50;;
1088;SDS011;533;53.556;9.990;2022-08-01T15:04:48;6.60;;;2.50;;
1088;SDS011;533;53.556;9.990;2022-08-01T15:07:21;6.73;;;2.53;;
1088;SDS011;533;53.556;9.990;2022-08-01T15:09:54;6.53;;;2.40;;
1088;SDS011;533;53.556;9.990;2022-08-01T15:12:26;4.80;;;2.60;;
1088;SDS011;533;53.556;9.990;2022-08-01T15:15:19;6.00;;;2.00;;
1088;SDS011;533;53.556;9.990;2022-08-01T15:17:51;5.83;;;2.80;;
1088;SDS011;533;53.556;9.990;2022-08-01T15:20:24;5.97;;;2.40;;
1088;SDS011;533;53.556;9.990;2022-08-01T15:22:58;8.67;;;3.20;;
1088;SDS011;533;53.556;9.990;2022-08-01T15:25:30;7.10;;;2.97;;
1088;SDS011;533;53.556;9.990;2022-08-01T15:28:13;5.40;;;2.60;;
1088;SDS011;533;53.556;9.990;2022-08-01T15:30:45;6.30;;;2.60;;
1088;SDS011;533;53.556;9.990;2022-08-01T15:33:17;6.90;;;2.50;;
1088;SDS011;533;53.556;9.990;2022-08-01T15:35:50;6.97;;;3.50;;
1088;SDS011;533;53.556;9.990;2022-08-01T15:38:23;9.70;;;2.60;;
1088;SDS011;533;53.556;9.990;2022-08-01T15:40:56;8.10;;;2.67;;
1088;SDS011;533;53.556;9.990;2022-08-01T15:43:28;7.53;;;2.90;;
1088;SDS011;533;53.556;9.990;2022-08-01T15:46:00;5.50;;;2.70;;
1088;SDS011;533;53.556;9.990;2022-08-01T15:48:33;7.70;;;3.27;;
1088;SDS011;533;53.556;9.990;2022-08-01T15:51:10;7.37;;;3.50;;
1088;SDS011;533;53.556;9.990;2022-08-01T15:53:43;6.67;;;3.57;;
1088;SDS011;533;53.556;9.990;2022-08-01T15:56:17;8.33;;;2.83;;
1088;SDS011;533;53.556;9.990;2022-08-01T15:58:50;7.27;;;3.00;;
1088;SDS011;533;53.556;9.990;2022-08-01T16:01:22;7.57;;;3.20;;
1088;SDS011;533;53.556;9.990;2022-08-01T16:03:55;6.30;;;3.10;;
1088;SDS011;533;53.556;9.990;2022-08-01T16:06:28;4.53;;;2.50;;
1088;SDS011;533;53.556;9.990;2022-08-01T16:09:00;6.90;;;2.80;;
1088;SDS011;533;53.556;9.990;2022-08-01T16:11:33;10.57;;;3.60;;
1088;SDS011;533;53.556;9.990;2022-08-01T16:14:11;7.50;;;2.90;;
1088;SDS011;533;53.556;9.990;2022-08-01T16:16:44;6.20;;;2.80;;
1088;SDS011;533;53.556;9.990;2022-08-01T16:19:18;7.73;;;2.73;;
1088;SDS011;533;53.556;9.990;2022-08-01T16:21:51;7.70;;;3.63;;
1088;SDS011;533;53.556;9.990;2022-08-01T16:24:24;6.90;;;3.13;;
1088;SDS011;533;53.556;9.990;2022-08-01T16:26:59;8.20;;;3.00;;
1088;SDS011;533;53.556;9.990;2022-08-01T16:29:32;6.27;;;3.37;;
1088;SDS011;533;53.556;9.990;2022-08-01T16:32:06;9.63;;;2.93;;
1088;SDS011;533;53.556;9.990;2022-08-01T16:34:58;7.67;;;4.20;;
1088;SDS011;533;53.556;9.990;2022-08-01T16:37:32;9.60;;;3.67;;
1088;SDS011;533;53.556;9.990;2022-08-01T16:40:04;9.80;;;3.43;;
1088;SDS011;533;53.556;9.990;2022-08-01T16:42:37;11.57;;;4.37;;
1088;SDS011;533;53.556;9.990;2022-08-01T16:45:10;6.70;;;3.40;;
1088;SDS011;533;53.556;9.990;2022-08-01T16:47:44;12.80;;;4.83;;